Woodland Park Weather Observations

home  gauges   today   yesterday   NOAA reports   graphs 
this month    this year    monthly records   extremes  

Observations from 2/23/2018 7:20 pm back to 2/20/2018 07:30 pm half hourly.

 

Observations previous 72 hours
 
Date/Time
MST
 
Temp
°F
App
Temp
°F
Heat
Index
°F
Wind
Chill
°F
Dew
Point
°F
Rel
Hum
%
 
Dir
 
 
Spd
kph
Wind
Gust
kph
 
Speed
MPH
 
Gust
MPH
Press
MSL
in
Rain
Since 12am
in
23/07:20pm 17.4 17.4 17.4 6.3 61 1.7 3.4 29.83 0.00 0 0
23/06:50pm 18.9 18.9 18.9 3.8 51 2.1 4.0 29.83 0.00 0 0
23/06:20pm 20.1 20.1 15.1 6.2 54 3.4 6.7 29.83 0.00 0 0
23/05:50pm 21.6 21.6 15.8 7.5 54 4.2 8.1 29.83 0.00 0 0
23/05:20pm 24.1 24.1 18.9 8.2 50 4.0 7.4 29.82 0.00 0 0
23/04:50pm 25.3 25.3 18.5 8.4 48 5.7 10.7 29.81 0.00 0 0
23/04:20pm 28.9 28.9 25.2 11.3 47 3.5 8.7 29.82 0.00 0 0
23/03:50pm 29.3 29.3 24.4 10.6 45 4.5 9.4 29.82 0.00 0 0
23/03:20pm 31.3 31.3 26.4 10.9 42 4.7 8.1 29.82 0.00 0 0
23/02:50pm 34.0 34.0 34.0 9.2 35 2.9 10.1 29.83 0.00 0 0
23/02:20pm 30.2 30.2 24.1 7.1 37 5.9 11.4 29.84 0.00 0 0
23/01:50pm 35.1 35.1 31.5 -3.0 19 4.1 9.4 29.84 0.00 0 0
23/01:20pm 34.5 34.5 31.9 -2.4 20 3.2 8.1 29.86 0.00 0 0
23/12:50pm 28.9 28.9 23.6 -5.1 22 4.9 13.4 29.87 0.00 0 0
23/12:20pm 30.7 30.7 26.5 -4.5 21 4.1 9.4 29.89 0.00 0 0
23/11:50am 27.9 27.9 21.9 -10.1 18 5.2 11.4 29.90 0.00 0 0
23/11:20am 27.5 27.5 23.9 -10.4 18 3.2 10.7 29.91 0.00 0 0
23/10:50am 28.0 28.0 28.0 -7.8 20 2.1 12.8 29.92 0.00 0 0
23/10:20am 25.7 25.7 25.7 -8.8 21 2.6 6.7 29.92 0.00 0 0
23/09:50am 24.6 24.6 24.6 -8.7 22 2.7 8.7 29.92 0.00 0 0
23/09:20am 25.7 25.7 25.7 -8.8 21 2.6 6.7 29.93 0.00 0 0
23/08:50am 24.6 24.6 24.6 -6.9 24 2.8 8.7 29.93 0.00 0 0
23/08:20am 23.2 23.2 23.2 -3.6 30 1.6 6.0 29.93 0.00 0 0
23/07:50am 19.8 19.8 19.8 0.5 42 0.6 5.4 29.92 0.00 0 0
23/07:20am 16.2 16.2 16.2 -2.8 42 0.2 2.0 29.91 0.00 0 0
23/06:50am 16.7 16.7 16.7 -2.8 41 0.6 2.7 29.91 0.00 0 0
23/06:25am 16.3 16.3 16.3 -3.3 41 0.0 0.0 29.91 0.00 0 0
23/05:55am 16.3 16.3 16.3 -2.8 42 1.3 1.3 29.91 0.00 0 0
23/05:25am 16.7 16.7 16.7 -2.5 42 0.0 0.7 29.90 0.00 0 0
23/04:55am 16.0 16.0 16.0 -0.7 47 0.7 1.3 29.91 0.00 0 0
23/04:25am 16.7 16.7 16.7 -3.0 41 0.0 0.0 29.89 0.00 0 0
23/03:55am 16.5 16.5 16.5 -3.6 40 0.0 0.0 29.89 0.00 0 0
23/03:25am 16.9 16.9 16.9 -3.3 40 0.0 0.0 29.89 0.00 0 0
23/02:55am 17.8 17.8 17.8 -3.0 39 0.7 2.0 29.90 0.00 0 0
23/02:25am 15.1 15.1 15.1 -4.4 41 2.0 4.7 29.91 0.00 0 0
23/01:55am 14.4 14.4 14.4 -5.6 40 0.7 1.3 29.91 0.00 0 0
23/01:25am 16.2 16.2 16.2 -4.5 39 0.0 0.0 29.91 0.00 0 0
23/12:55am 16.2 16.2 16.2 -8.0 33 1.3 2.0 29.92 0.00 0 0
23/12:25am 15.8 15.8 15.8 -8.3 33 0.0 0.0 29.92 0.00 0 0
22/11:55pm 16.5 16.5 16.5 -7.0 34 0.0 0.7 29.92 0.00 0 0
22/11:25pm 16.0 16.0 16.0 -3.6 41 0.0 0.0 29.93 0.00 0 0
22/10:55pm 15.3 15.3 15.3 -1.0 48 0.0 0.0 29.93 0.00 0 0
22/10:25pm 16.3 16.3 16.3 -1.8 44 0.0 1.3 29.93 0.00 0 0
22/10:00pm 17.6 17.6 17.6 -0.5 44 0.6 6.7 29.93 0.00 0 0
22/09:30pm 17.6 17.6 17.6 1.3 48 0.7 5.4 29.93 0.00 0 0
22/09:00pm 16.9 16.9 16.9 2.8 53 0.0 0.0 29.91 0.00 0 0
22/08:30pm 18.1 18.1 18.1 2.7 50 0.7 4.7 29.91 0.00 0 0
22/08:00pm 17.6 17.6 17.6 6.5 61 0.2 2.0 29.90 0.00 0 0
 
Date/Time
MST
 
Temp
°F
App
Temp
°F
Heat
Index
°F
Wind
Chill
°F
Dew
Point
°F
Rel
Hum
%
 
Dir
 
 
Spd
km/h
Wind
Gust
km/h
 
Speed
MPH
 
Gust
MPH
Press
MSL
in
Rain
Since 9am
in
 
Solar
W/m2
 
UV
Index
22/07:30pm 18.0 18.0 18.0 8.6 66 0.0 0.0 29.90 0.00 0 0
22/07:00pm 21.2 21.2 21.2 5.1 49 0.1 1.3 29.89 0.00 0 0
22/06:30pm 22.3 22.3 22.3 5.6 48 0.1 2.0 29.88 0.00 0 0
22/06:00pm 23.4 23.4 23.4 6.2 47 0.0 2.0 29.86 0.00 0 0
22/05:30pm 24.8 24.8 24.8 5.5 43 2.0 6.7 29.85 0.00 0 0
22/05:00pm 26.6 26.6 22.9 6.1 41 3.2 8.1 29.84 0.00 0 0
22/04:30pm 27.0 27.0 23.1 5.9 40 3.4 7.4 29.83 0.00 0 0
22/04:00pm 28.0 28.0 28.0 6.9 40 2.0 6.7 29.83 0.00 0 0
22/03:30pm 29.8 29.8 29.8 7.4 38 1.8 5.4 29.82 0.00 0 0
22/03:00pm 31.8 31.8 29.1 11.9 43 3.0 10.1 29.81 0.00 0 0
22/02:30pm 30.4 30.4 27.3 9.5 41 3.1 8.1 29.80 0.00 0 0
22/02:00pm 29.7 29.7 24.6 14.7 53 4.7 10.1 29.80 0.00 0 0
22/01:30pm 28.9 28.9 23.7 8.8 42 4.8 12.1 29.81 0.00 0 0
22/01:00pm 25.9 25.9 25.9 14.3 61 1.2 4.0 29.80 0.00 0 0
22/12:30pm 26.1 26.1 26.1 14.1 60 2.7 6.7 29.81 0.00 0 0
22/12:00pm 29.5 29.5 29.5 14.1 52 3.0 8.1 29.82 0.00 0 0
22/11:30am 29.3 29.3 24.1 12.1 48 4.8 9.4 29.82 0.00 0 0
22/11:00am 29.3 29.3 25.7 13.5 51 3.4 10.1 29.83 0.00 0 0
22/10:30am 29.7 29.7 29.7 13.8 51 2.7 7.4 29.84 0.00 0 0
22/10:00am 27.0 27.0 27.0 14.2 58 0.5 4.0 29.83 0.00 0 0
22/09:30am 24.8 24.8 24.8 12.9 60 0.2 2.0 29.84 0.00 0 0
22/09:00am 21.9 21.9 21.9 12.7 67 0.9 3.4 29.84 0.00 0 0
22/08:30am 20.3 20.3 20.3 11.8 69 0.4 2.7 29.84 0.00 0 0
22/08:00am 19.2 19.2 19.2 10.4 68 0.5 4.0 29.85 0.00 0 0
22/07:25am 16.0 16.0 16.0 8.2 71 0.0 0.0 29.85 0.00 0 0
22/06:55am 12.2 12.2 12.2 4.9 72 0.0 0.0 29.84 0.00 0 0
22/06:25am 10.9 10.9 10.9 4.3 74 0.0 0.0 29.84 0.00 0 0
22/05:55am 10.6 10.6 10.6 3.6 73 1.3 2.7 29.85 0.00 0 0
22/05:25am 11.8 11.8 11.8 3.9 70 0.0 0.7 29.84 0.00 0 0
22/04:55am 18.0 18.0 18.0 10.8 73 0.0 0.0 29.84 0.00 0 0
22/04:25am 12.6 12.6 12.6 5.8 74 1.3 1.3 29.85 0.00 0 0
22/03:55am 14.0 14.0 14.0 7.2 74 0.0 0.0 29.86 0.00 0 0
22/03:25am 11.7 11.7 11.7 4.7 73 0.0 0.0 29.87 0.00 0 0
22/02:55am 10.4 10.4 10.4 3.2 72 0.7 1.3 29.87 0.00 0 0
22/02:25am 9.1 9.1 9.1 0.1 66 0.7 1.3 29.86 0.00 0 0
22/01:55am 11.1 11.1 11.1 3.2 70 0.7 1.3 29.88 0.00 0 0
22/01:25am 9.5 9.5 9.5 0.4 66 1.3 2.0 29.89 0.00 0 0
22/12:55am 10.0 10.0 10.0 1.3 67 1.3 2.0 29.90 0.00 0 0
22/12:25am 9.3 9.3 9.3 0.9 68 0.0 0.0 29.92 0.00 0 0
21/11:55pm 7.9 7.9 7.9 -0.5 68 0.0 1.3 29.93 0.00 0 0
21/11:25pm 7.7 7.7 7.7 -0.7 68 0.0 0.7 29.93 0.00 0 0
21/10:55pm 7.0 7.0 7.0 -1.4 68 0.0 0.0 29.94 0.00 0 0
21/10:30pm 7.7 7.7 7.7 -0.3 69 0.0 0.0 29.93 0.00 0 0
21/10:00pm 8.6 8.6 8.6 0.6 69 0.0 0.0 29.95 0.00 0 0
21/09:30pm 8.1 8.1 8.1 0.4 70 0.0 0.0 29.96 0.00 0 0
21/09:00pm 7.5 7.5 7.5 -0.1 70 0.8 2.0 29.96 0.00 0 0
21/08:30pm 8.1 8.1 8.1 0.7 71 0.9 3.4 29.95 0.00 0 0
21/08:00pm 8.8 8.8 8.8 1.1 70 1.0 2.7 29.96 0.00 0 0
 
Date/Time
WST
 
Temp
°F
App
Temp
°F
Heat
Index
°F
Wind
Chill
°F
Dew
Point
°F
Rel
Hum
%
 
Dir
 
 
Spd
km/h
Wind
Gust
km/h
 
Spd
kts
 
Gust
kts
Press
MSL
in
Rain
Since 9am
in
 
Solar
W/m2
 
UV
Index
21/07:30pm 9.7 9.7 9.7 2.3 71 2.3 4.7 29.96 0.00 0 0
21/07:00pm 10.2 10.2 10.2 2.8 71 2.2 4.7 29.96 0.00 0 0
21/06:30pm 10.9 10.9 4.6 4.4 74 3.5 6.7 29.95 0.00 0 0
21/06:00pm 11.7 11.7 3.9 4.8 73 4.5 7.4 29.95 0.00 0 0
21/05:30pm 12.7 12.7 2.5 4.6 69 6.7 10.1 29.94 0.00 0 0
21/05:00pm 14.9 14.9 8.4 5.0 64 3.9 7.4 29.94 0.00 0 0
21/04:30pm 16.5 16.5 16.5 5.1 60 2.7 6.0 29.93 0.00 0 0
21/04:00pm 18.3 18.3 13.5 6.1 58 3.2 5.4 29.94 0.00 0 0
21/03:30pm 19.0 19.0 13.3 6.4 57 3.8 7.4 29.93 0.00 0 0
21/03:00pm 19.4 19.4 13.0 8.2 61 4.3 7.4 29.93 0.00 0 0
21/02:30pm 19.9 19.9 13.2 8.4 60 4.7 9.4 29.94 0.00 0 0
21/02:00pm 21.2 21.2 15.4 9.2 59 4.1 6.7 29.95 0.00 0 0
21/01:30pm 18.5 18.5 12.3 6.2 58 4.1 8.1 29.95 0.00 0 0
21/01:00pm 20.1 20.1 15.5 5.8 53 3.2 6.7 29.95 0.00 0 0
21/12:30pm 23.9 23.9 23.9 3.2 40 2.9 6.7 29.96 0.00 0 0
21/12:00pm 22.3 22.3 22.3 3.2 43 2.7 5.4 29.97 0.00 0 0
21/11:30am 19.2 19.2 19.2 -1.6 39 2.2 6.0 29.98 0.00 0 0
21/11:00am 17.6 17.6 17.6 -2.0 41 1.7 4.0 29.99 0.00 0 0
21/10:30am 16.0 16.0 16.0 0.7 50 1.4 3.4 30.00 0.00 0 0
21/10:00am 13.3 13.3 13.3 -1.4 51 1.5 4.0 30.00 0.00 0 0
21/09:30am 13.6 13.6 13.6 -3.2 46 1.9 4.0 30.00 0.00 0 0
21/08:55am 16.7 16.7 16.7 4.1 57 0.0 0.0 30.01 0.00 0 0
21/08:25am 11.1 11.1 11.1 -1.2 57 0.0 0.0 30.00 0.00 0 0
21/07:55am 5.9 5.9 5.9 -5.7 58 0.0 0.7 30.00 0.00 0 0
21/07:25am 3.7 3.7 3.7 -6.7 61 0.0 0.0 30.00 0.00 0 0
21/06:55am 2.7 2.7 2.7 -7.4 62 0.0 0.0 30.00 0.00 0 0
21/06:25am 0.0 0.0 0.0 -11.3 58 0.7 1.3 29.99 0.00 0 0
21/05:55am 3.9 3.9 3.9 -5.9 63 0.0 0.7 29.99 0.00 0 0
21/05:25am 3.2 3.2 3.2 -6.2 64 0.0 0.0 29.98 0.00 0 0
21/04:55am 1.0 1.0 1.0 -9.6 60 0.7 1.3 29.97 0.00 0 0
21/04:25am 0.7 0.7 0.7 -9.6 61 0.0 1.3 29.96 0.00 0 0
21/03:55am 1.0 1.0 1.0 -9.0 62 0.0 0.0 29.96 0.00 0 0
21/03:25am -1.3 -1.3 -1.3 -11.5 61 0.0 0.7 29.96 0.00 0 0
21/02:55am -1.8 -1.8 -1.8 -12.0 61 0.7 1.3 29.96 0.00 0 0
21/02:25am 0.0 0.0 0.0 -10.3 61 0.0 0.0 29.96 0.00 0 0
21/01:55am 4.1 4.1 4.1 -4.4 67 0.0 0.0 29.97 0.00 0 0
21/01:25am 5.5 5.5 5.5 -2.7 68 0.7 2.0 29.97 0.00 0 0
21/12:55am 5.0 5.0 5.0 -3.6 67 0.0 0.7 29.97 0.00 0 0
21/12:25am 1.9 1.9 1.9 -6.5 67 0.0 0.0 29.98 0.00 0 0
20/11:55pm 3.6 3.6 3.6 -5.0 67 0.7 1.3 29.97 0.00 0 0
20/11:25pm 3.9 3.9 3.9 -4.3 68 0.0 1.3 29.98 0.00 0 0
20/10:55pm 5.2 5.2 5.2 -3.1 68 1.3 2.0 29.98 0.00 0 0
20/10:25pm 5.5 5.5 5.5 -2.4 69 1.3 2.0 29.98 0.00 0 0
20/10:00pm 6.1 6.1 6.1 -1.5 70 1.7 3.4 29.98 0.00 0 0
20/09:30pm 6.4 6.4 0.4 -1.2 70 3.0 6.0 29.97 0.00 0 0
20/09:00pm 7.0 7.0 7.0 -0.6 70 3.0 6.0 29.95 0.00 0 0
20/08:30pm 7.3 7.3 7.3 -0.3 70 2.6 5.4 29.94 0.00 0 0
20/08:00pm 7.3 7.3 1.2 -0.3 70 3.1 5.4 29.93 0.00 0 0
20/07:30pm 8.4 8.4 8.4 1.0 71 2.4 4.0 29.92 0.00 0 0
 
Date/Time
MST
 
Temp
°F
App
Temp
°F
Heat
Index
°F
Wind
Chill
°F
Dew
Point
°F
Rel
Hum
%
 
Dir
 
 
Spd
km/h
Wind
Gust
km/h
 
Speed
MPH
 
Gust
MPH
Press
MSL
in
Rain
Since 9am
in
 
Solar
W/m2
 
UV
Index




page updated 2/23/2018 7:20:01 PM
powered by  cumulus v1.9.4 (1099)
cumulus software support forum